sensor_id;sensor_type;location;lat;lon;timestamp;temperature;humidity
64143;DHT22;50437;51.970;5.904;2023-05-07T00:00:47;15.30;99.90
64143;DHT22;50437;51.970;5.904;2023-05-07T00:03:13;15.20;99.90
64143;DHT22;50437;51.970;5.904;2023-05-07T00:05:39;15.20;99.90
64143;DHT22;50437;51.970;5.904;2023-05-07T00:08:07;15.30;99.90
64143;DHT22;50437;51.970;5.904;2023-05-07T00:10:33;15.20;99.90
64143;DHT22;50437;51.970;5.904;2023-05-07T00:12:59;15.30;99.90
64143;DHT22;50437;51.970;5.904;2023-05-07T00:15:25;15.30;99.90
64143;DHT22;50437;51.970;5.904;2023-05-07T00:17:51;15.20;99.90
64143;DHT22;50437;51.970;5.904;2023-05-07T00:20:17;15.10;99.90
64143;DHT22;50437;51.970;5.904;2023-05-07T00:22:43;15.20;99.90
64143;DHT22;50437;51.970;5.904;2023-05-07T00:25:09;15.20;99.90
64143;DHT22;50437;51.970;5.904;2023-05-07T00:27:36;15.30;99.90
64143;DHT22;50437;51.970;5.904;2023-05-07T00:30:02;15.10;99.90
64143;DHT22;50437;51.970;5.904;2023-05-07T00:32:28;15.10;99.90
64143;DHT22;50437;51.970;5.904;2023-05-07T00:34:54;15.00;99.90
64143;DHT22;50437;51.970;5.904;2023-05-07T00:37:21;15.00;99.90
64143;DHT22;50437;51.970;5.904;2023-05-07T00:39:47;15.00;99.90
64143;DHT22;50437;51.970;5.904;2023-05-07T00:42:13;15.00;99.90
64143;DHT22;50437;51.970;5.904;2023-05-07T00:44:40;15.00;99.90
64143;DHT22;50437;51.970;5.904;2023-05-07T00:47:07;14.90;99.90
64143;DHT22;50437;51.970;5.904;2023-05-07T00:49:36;14.90;99.90
64143;DHT22;50437;51.970;5.904;2023-05-07T00:52:03;15.00;99.90
64143;DHT22;50437;51.970;5.904;2023-05-07T00:54:29;14.90;99.90
64143;DHT22;50437;51.970;5.904;2023-05-07T00:56:55;14.90;99.90
64143;DHT22;50437;51.970;5.904;2023-05-07T00:59:22;14.70;99.90
64143;DHT22;50437;51.970;5.904;2023-05-07T01:01:47;14.60;99.90
64143;DHT22;50437;51.970;5.904;2023-05-07T01:04:14;14.60;99.90
64143;DHT22;50437;51.970;5.904;2023-05-07T01:06:40;14.60;99.90
64143;DHT22;50437;51.970;5.904;2023-05-07T01:09:06;14.50;99.90
64143;DHT22;50437;51.970;5.904;2023-05-07T01:11:33;14.50;99.90
64143;DHT22;50437;51.970;5.904;2023-05-07T01:13:59;14.60;99.90
64143;DHT22;50437;51.970;5.904;2023-05-07T01:16:26;14.50;99.90
64143;DHT22;50437;51.970;5.904;2023-05-07T01:18:53;14.60;99.90
64143;DHT22;50437;51.970;5.904;2023-05-07T01:21:19;14.40;99.90
64143;DHT22;50437;51.970;5.904;2023-05-07T01:23:49;14.40;99.90
64143;DHT22;50437;51.970;5.904;2023-05-07T01:26:16;14.40;99.90
64143;DHT22;50437;51.970;5.904;2023-05-07T01:28:45;14.40;99.90
64143;DHT22;50437;51.970;5.904;2023-05-07T01:31:14;14.40;99.90
64143;DHT22;50437;51.970;5.904;2023-05-07T01:33:42;14.50;99.90
64143;DHT22;50437;51.970;5.904;2023-05-07T01:36:10;14.50;99.90
64143;DHT22;50437;51.970;5.904;2023-05-07T01:38:37;14.60;99.90
64143;DHT22;50437;51.970;5.904;2023-05-07T01:41:03;14.60;99.90
64143;DHT22;50437;51.970;5.904;2023-05-07T01:43:30;14.60;99.90
64143;DHT22;50437;51.970;5.904;2023-05-07T01:45:57;14.60;99.90
64143;DHT22;50437;51.970;5.904;2023-05-07T01:48:25;14.70;99.90
64143;DHT22;50437;51.970;5.904;2023-05-07T01:50:51;14.70;99.90
64143;DHT22;50437;51.970;5.904;2023-05-07T01:53:18;14.80;99.90
64143;DHT22;50437;51.970;5.904;2023-05-07T01:55:44;14.70;99.90
64143;DHT22;50437;51.970;5.904;2023-05-07T01:58:11;14.70;99.90
64143;DHT22;50437;51.970;5.904;2023-05-07T02:00:37;14.80;99.90
64143;DHT22;50437;51.970;5.904;2023-05-07T02:03:03;14.80;99.90
64143;DHT22;50437;51.970;5.904;2023-05-07T02:05:53;14.80;99.90
64143;DHT22;50437;51.970;5.904;2023-05-07T02:08:28;14.80;99.90
64143;DHT22;50437;51.970;5.904;2023-05-07T02:10:56;14.70;99.90
64143;DHT22;50437;51.970;5.904;2023-05-07T02:13:22;14.80;99.90
64143;DHT22;50437;51.970;5.904;2023-05-07T02:15:50;14.80;99.90
64143;DHT22;50437;51.970;5.904;2023-05-07T02:18:17;14.80;99.90
64143;DHT22;50437;51.970;5.904;2023-05-07T02:20:43;14.80;99.90
64143;DHT22;50437;51.970;5.904;2023-05-07T02:23:09;14.90;99.90
64143;DHT22;50437;51.970;5.904;2023-05-07T02:25:35;14.80;99.90
64143;DHT22;50437;51.970;5.904;2023-05-07T02:28:01;14.80;99.90
64143;DHT22;50437;51.970;5.904;2023-05-07T02:30:42;14.80;99.90
64143;DHT22;50437;51.970;5.904;2023-05-07T02:33:08;14.80;99.90
64143;DHT22;50437;51.970;5.904;2023-05-07T02:35:34;14.70;99.90
64143;DHT22;50437;51.970;5.904;2023-05-07T02:38:01;14.70;99.90
64143;DHT22;50437;51.970;5.904;2023-05-07T02:40:27;14.60;99.90
64143;DHT22;50437;51.970;5.904;2023-05-07T02:43:00;14.50;99.90
64143;DHT22;50437;51.970;5.904;2023-05-07T02:45:26;14.50;99.90
64143;DHT22;50437;51.970;5.904;2023-05-07T02:47:54;14.50;99.90
64143;DHT22;50437;51.970;5.904;2023-05-07T02:50:21;14.50;99.90
64143;DHT22;50437;51.970;5.904;2023-05-07T02:52:47;14.40;99.90
64143;DHT22;50437;51.970;5.904;2023-05-07T02:55:13;14.50;99.90
64143;DHT22;50437;51.970;5.904;2023-05-07T02:57:39;14.50;99.90
64143;DHT22;50437;51.970;5.904;2023-05-07T03:00:13;14.60;99.90
64143;DHT22;50437;51.970;5.904;2023-05-07T03:02:45;14.50;99.90
64143;DHT22;50437;51.970;5.904;2023-05-07T03:05:11;14.50;99.90
64143;DHT22;50437;51.970;5.904;2023-05-07T03:07:38;14.40;99.90
64143;DHT22;50437;51.970;5.904;2023-05-07T03:10:04;14.40;99.90
64143;DHT22;50437;51.970;5.904;2023-05-07T03:12:31;14.40;99.90
64143;DHT22;50437;51.970;5.904;2023-05-07T03:14:57;14.40;99.90
64143;DHT22;50437;51.970;5.904;2023-05-07T03:17:23;14.30;99.90
64143;DHT22;50437;51.970;5.904;2023-05-07T03:19:49;14.30;99.90
64143;DHT22;50437;51.970;5.904;2023-05-07T03:22:15;14.30;99.90
64143;DHT22;50437;51.970;5.904;2023-05-07T03:24:41;14.50;99.90
64143;DHT22;50437;51.970;5.904;2023-05-07T03:27:07;14.30;99.90
64143;DHT22;50437;51.970;5.904;2023-05-07T03:29:34;14.40;99.90
64143;DHT22;50437;51.970;5.904;2023-05-07T03:32:00;14.40;99.90
64143;DHT22;50437;51.970;5.904;2023-05-07T03:34:27;14.40;99.90
64143;DHT22;50437;51.970;5.904;2023-05-07T03:36:54;14.30;99.90
64143;DHT22;50437;51.970;5.904;2023-05-07T03:39:22;14.30;99.90
64143;DHT22;50437;51.970;5.904;2023-05-07T03:41:49;14.30;99.90
64143;DHT22;50437;51.970;5.904;2023-05-07T03:44:15;14.20;99.90
64143;DHT22;50437;51.970;5.904;2023-05-07T03:46:42;14.20;99.90
64143;DHT22;50437;51.970;5.904;2023-05-07T03:49:11;14.10;99.90
64143;DHT22;50437;51.970;5.904;2023-05-07T03:51:37;14.20;99.90
64143;DHT22;50437;51.970;5.904;2023-05-07T03:54:04;14.20;99.90
64143;DHT22;50437;51.970;5.904;2023-05-07T03:56:32;14.20;99.90
64143;DHT22;50437;51.970;5.904;2023-05-07T03:58:59;14.20;99.90
64143;DHT22;50437;51.970;5.904;2023-05-07T04:01:26;14.20;99.90
64143;DHT22;50437;51.970;5.904;2023-05-07T04:03:52;14.10;99.90
64143;DHT22;50437;51.970;5.904;2023-05-07T04:06:18;14.20;99.90
64143;DHT22;50437;51.970;5.904;2023-05-07T04:08:47;14.10;99.90
64143;DHT22;50437;51.970;5.904;2023-05-07T04:11:13;14.10;99.90
64143;DHT22;50437;51.970;5.904;2023-05-07T04:13:39;14.10;99.90
64143;DHT22;50437;51.970;5.904;2023-05-07T04:16:07;14.10;99.90
64143;DHT22;50437;51.970;5.904;2023-05-07T04:18:35;14.10;99.90
64143;DHT22;50437;51.970;5.904;2023-05-07T04:21:01;14.20;99.90
64143;DHT22;50437;51.970;5.904;2023-05-07T04:23:28;14.20;99.90
64143;DHT22;50437;51.970;5.904;2023-05-07T04:25:55;14.20;99.90
64143;DHT22;50437;51.970;5.904;2023-05-07T04:28:33;14.20;99.90
64143;DHT22;50437;51.970;5.904;2023-05-07T04:30:59;14.20;99.90
64143;DHT22;50437;51.970;5.904;2023-05-07T04:33:26;14.20;99.90
64143;DHT22;50437;51.970;5.904;2023-05-07T04:35:52;14.20;99.90
64143;DHT22;50437;51.970;5.904;2023-05-07T04:38:19;14.20;99.90
64143;DHT22;50437;51.970;5.904;2023-05-07T04:40:46;14.10;99.90
64143;DHT22;50437;51.970;5.904;2023-05-07T04:43:16;14.10;99.90
64143;DHT22;50437;51.970;5.904;2023-05-07T04:45:49;14.20;99.90
64143;DHT22;50437;51.970;5.904;2023-05-07T04:48:15;14.10;99.90
64143;DHT22;50437;51.970;5.904;2023-05-07T04:50:42;14.20;99.90
64143;DHT22;50437;51.970;5.904;2023-05-07T04:53:08;14.20;99.90
64143;DHT22;50437;51.970;5.904;2023-05-07T04:55:35;14.20;99.90
64143;DHT22;50437;51.970;5.904;2023-05-07T04:58:01;14.20;99.90
64143;DHT22;50437;51.970;5.904;2023-05-07T05:00:30;14.20;99.90
64143;DHT22;50437;51.970;5.904;2023-05-07T05:02:57;14.30;99.90
64143;DHT22;50437;51.970;5.904;2023-05-07T05:05:23;14.30;99.90
64143;DHT22;50437;51.970;5.904;2023-05-07T05:07:55;14.30;99.90
64143;DHT22;50437;51.970;5.904;2023-05-07T05:10:21;14.30;99.90
64143;DHT22;50437;51.970;5.904;2023-05-07T05:12:49;14.30;99.90
64143;DHT22;50437;51.970;5.904;2023-05-07T05:15:15;14.40;99.90
64143;DHT22;50437;51.970;5.904;2023-05-07T05:17:43;14.40;99.90
64143;DHT22;50437;51.970;5.904;2023-05-07T05:20:09;14.40;99.90
64143;DHT22;50437;51.970;5.904;2023-05-07T05:22:39;14.40;99.90
64143;DHT22;50437;51.970;5.904;2023-05-07T05:25:05;14.40;99.90
64143;DHT22;50437;51.970;5.904;2023-05-07T05:27:31;14.40;99.90
64143;DHT22;50437;51.970;5.904;2023-05-07T05:29:58;14.50;99.90
64143;DHT22;50437;51.970;5.904;2023-05-07T05:32:24;14.40;99.90
64143;DHT22;50437;51.970;5.904;2023-05-07T05:34:54;14.40;99.90
64143;DHT22;50437;51.970;5.904;2023-05-07T05:37:22;14.40;99.90
64143;DHT22;50437;51.970;5.904;2023-05-07T05:39:53;14.50;99.90
64143;DHT22;50437;51.970;5.904;2023-05-07T05:42:22;14.50;99.90
64143;DHT22;50437;51.970;5.904;2023-05-07T05:44:54;14.60;99.90
64143;DHT22;50437;51.970;5.904;2023-05-07T05:47:22;14.60;99.90
64143;DHT22;50437;51.970;5.904;2023-05-07T05:49:53;14.50;99.90
64143;DHT22;50437;51.970;5.904;2023-05-07T05:52:34;14.60;99.90
64143;DHT22;50437;51.970;5.904;2023-05-07T05:55:30;14.60;99.90
64143;DHT22;50437;51.970;5.904;2023-05-07T05:58:00;14.70;99.90
64143;DHT22;50437;51.970;5.904;2023-05-07T06:00:34;14.70;99.90
64143;DHT22;50437;51.970;5.904;2023-05-07T06:03:04;14.60;99.90
64143;DHT22;50437;51.970;5.904;2023-05-07T06:05:39;14.60;99.90
64143;DHT22;50437;51.970;5.904;2023-05-07T06:08:05;14.60;99.90
64143;DHT22;50437;51.970;5.904;2023-05-07T06:10:33;14.60;99.90
64143;DHT22;50437;51.970;5.904;2023-05-07T06:13:00;14.60;99.90
64143;DHT22;50437;51.970;5.904;2023-05-07T06:15:28;14.70;99.90
64143;DHT22;50437;51.970;5.904;2023-05-07T06:17:55;14.70;99.90
64143;DHT22;50437;51.970;5.904;2023-05-07T06:20:23;14.80;99.90
64143;DHT22;50437;51.970;5.904;2023-05-07T06:22:50;14.80;99.90
64143;DHT22;50437;51.970;5.904;2023-05-07T06:25:16;14.70;99.90
64143;DHT22;50437;51.970;5.904;2023-05-07T06:27:43;15.00;99.90
64143;DHT22;50437;51.970;5.904;2023-05-07T06:30:10;14.90;99.90
64143;DHT22;50437;51.970;5.904;2023-05-07T06:32:36;15.00;99.90
64143;DHT22;50437;51.970;5.904;2023-05-07T06:35:04;15.10;99.90
64143;DHT22;50437;51.970;5.904;2023-05-07T06:37:30;15.10;99.90
64143;DHT22;50437;51.970;5.904;2023-05-07T06:40:04;15.30;99.90
64143;DHT22;50437;51.970;5.904;2023-05-07T06:42:33;15.40;99.90
64143;DHT22;50437;51.970;5.904;2023-05-07T06:45:16;15.40;99.90
64143;DHT22;50437;51.970;5.904;2023-05-07T06:47:43;15.50;99.90
64143;DHT22;50437;51.970;5.904;2023-05-07T06:50:09;15.40;99.90
64143;DHT22;50437;51.970;5.904;2023-05-07T06:52:36;15.40;99.90
64143;DHT22;50437;51.970;5.904;2023-05-07T06:55:02;15.40;99.90
64143;DHT22;50437;51.970;5.904;2023-05-07T06:57:28;15.50;99.90
64143;DHT22;50437;51.970;5.904;2023-05-07T06:59:54;15.50;99.90
64143;DHT22;50437;51.970;5.904;2023-05-07T07:02:21;15.60;99.90
64143;DHT22;50437;51.970;5.904;2023-05-07T07:04:49;15.70;99.90
64143;DHT22;50437;51.970;5.904;2023-05-07T07:07:15;15.70;99.90
64143;DHT22;50437;51.970;5.904;2023-05-07T07:09:44;15.60;99.90
64143;DHT22;50437;51.970;5.904;2023-05-07T07:12:10;15.60;99.90
64143;DHT22;50437;51.970;5.904;2023-05-07T07:14:39;15.70;99.90
64143;DHT22;50437;51.970;5.904;2023-05-07T07:17:06;15.80;99.90
64143;DHT22;50437;51.970;5.904;2023-05-07T07:19:32;15.90;99.90
64143;DHT22;50437;51.970;5.904;2023-05-07T07:21:58;16.00;99.90
64143;DHT22;50437;51.970;5.904;2023-05-07T07:24:24;16.00;99.90
64143;DHT22;50437;51.970;5.904;2023-05-07T07:26:55;15.90;99.90
64143;DHT22;50437;51.970;5.904;2023-05-07T07:29:22;16.00;99.90
64143;DHT22;50437;51.970;5.904;2023-05-07T07:31:48;16.00;99.90
64143;DHT22;50437;51.970;5.904;2023-05-07T07:34:16;16.00;99.90
64143;DHT22;50437;51.970;5.904;2023-05-07T07:36:42;16.10;99.90
64143;DHT22;50437;51.970;5.904;2023-05-07T07:39:08;16.20;99.90
64143;DHT22;50437;51.970;5.904;2023-05-07T07:41:36;16.30;99.90
64143;DHT22;50437;51.970;5.904;2023-05-07T07:44:03;16.40;99.90
64143;DHT22;50437;51.970;5.904;2023-05-07T07:46:34;16.40;99.90
64143;DHT22;50437;51.970;5.904;2023-05-07T07:49:01;16.50;99.90
64143;DHT22;50437;51.970;5.904;2023-05-07T07:51:28;16.40;99.90
64143;DHT22;50437;51.970;5.904;2023-05-07T07:53:55;16.30;99.90
64143;DHT22;50437;51.970;5.904;2023-05-07T07:56:23;16.30;99.90
64143;DHT22;50437;51.970;5.904;2023-05-07T07:58:49;16.20;99.90
64143;DHT22;50437;51.970;5.904;2023-05-07T08:01:16;16.10;99.90
64143;DHT22;50437;51.970;5.904;2023-05-07T08:03:45;16.10;99.90
64143;DHT22;50437;51.970;5.904;2023-05-07T08:06:12;16.00;99.90
64143;DHT22;50437;51.970;5.904;2023-05-07T08:08:40;16.10;99.90
64143;DHT22;50437;51.970;5.904;2023-05-07T08:11:07;16.20;99.90
64143;DHT22;50437;51.970;5.904;2023-05-07T08:13:35;16.40;99.90
64143;DHT22;50437;51.970;5.904;2023-05-07T08:16:02;16.50;99.90
64143;DHT22;50437;51.970;5.904;2023-05-07T08:18:28;16.60;99.90
64143;DHT22;50437;51.970;5.904;2023-05-07T08:20:56;16.70;99.90
64143;DHT22;50437;51.970;5.904;2023-05-07T08:23:25;16.60;99.90
64143;DHT22;50437;51.970;5.904;2023-05-07T08:25:53;16.70;99.90
64143;DHT22;50437;51.970;5.904;2023-05-07T08:28:19;16.50;99.90
64143;DHT22;50437;51.970;5.904;2023-05-07T08:30:47;16.80;99.90
64143;DHT22;50437;51.970;5.904;2023-05-07T08:33:14;16.80;99.90
64143;DHT22;50437;51.970;5.904;2023-05-07T08:35:40;16.80;99.90
64143;DHT22;50437;51.970;5.904;2023-05-07T08:38:07;17.00;99.90
64143;DHT22;50437;51.970;5.904;2023-05-07T08:40:38;17.10;99.90
64143;DHT22;50437;51.970;5.904;2023-05-07T08:43:07;17.40;99.90
64143;DHT22;50437;51.970;5.904;2023-05-07T08:45:35;17.60;99.90
64143;DHT22;50437;51.970;5.904;2023-05-07T08:48:03;17.60;99.90
64143;DHT22;50437;51.970;5.904;2023-05-07T08:50:35;17.70;99.90
64143;DHT22;50437;51.970;5.904;2023-05-07T08:53:02;17.60;99.90
64143;DHT22;50437;51.970;5.904;2023-05-07T08:55:28;17.40;99.90
64143;DHT22;50437;51.970;5.904;2023-05-07T08:57:55;17.50;99.90
64143;DHT22;50437;51.970;5.904;2023-05-07T09:00:21;17.50;99.90
64143;DHT22;50437;51.970;5.904;2023-05-07T09:02:50;17.60;99.90
64143;DHT22;50437;51.970;5.904;2023-05-07T09:05:17;17.60;99.90
64143;DHT22;50437;51.970;5.904;2023-05-07T09:07:43;17.40;99.90
64143;DHT22;50437;51.970;5.904;2023-05-07T09:10:10;17.70;99.90
64143;DHT22;50437;51.970;5.904;2023-05-07T09:12:39;17.90;99.90
64143;DHT22;50437;51.970;5.904;2023-05-07T09:15:07;18.00;99.90
64143;DHT22;50437;51.970;5.904;2023-05-07T09:17:34;18.50;99.90
64143;DHT22;50437;51.970;5.904;2023-05-07T09:20:06;19.20;99.90
64143;DHT22;50437;51.970;5.904;2023-05-07T09:22:33;19.40;99.90
64143;DHT22;50437;51.970;5.904;2023-05-07T09:25:03;19.50;99.90
64143;DHT22;50437;51.970;5.904;2023-05-07T09:27:30;19.60;99.90
64143;DHT22;50437;51.970;5.904;2023-05-07T09:29:57;19.90;99.90
64143;DHT22;50437;51.970;5.904;2023-05-07T09:32:24;20.10;99.90
64143;DHT22;50437;51.970;5.904;2023-05-07T09:34:51;20.20;99.90
64143;DHT22;50437;51.970;5.904;2023-05-07T09:37:22;20.30;99.90
64143;DHT22;50437;51.970;5.904;2023-05-07T09:39:49;20.10;99.90
64143;DHT22;50437;51.970;5.904;2023-05-07T09:42:22;20.50;99.90
64143;DHT22;50437;51.970;5.904;2023-05-07T09:44:49;21.00;99.90
64143;DHT22;50437;51.970;5.904;2023-05-07T09:47:19;20.90;99.90
64143;DHT22;50437;51.970;5.904;2023-05-07T09:49:49;20.90;99.90
64143;DHT22;50437;51.970;5.904;2023-05-07T09:52:19;21.20;99.90
64143;DHT22;50437;51.970;5.904;2023-05-07T09:54:50;20.80;99.90
64143;DHT22;50437;51.970;5.904;2023-05-07T09:57:18;21.00;99.90
64143;DHT22;50437;51.970;5.904;2023-05-07T09:59:48;21.10;99.90
64143;DHT22;50437;51.970;5.904;2023-05-07T10:02:17;20.70;99.90
64143;DHT22;50437;51.970;5.904;2023-05-07T10:04:47;20.80;99.90
64143;DHT22;50437;51.970;5.904;2023-05-07T10:07:17;21.10;99.90
64143;DHT22;50437;51.970;5.904;2023-05-07T10:09:44;21.00;99.90
64143;DHT22;50437;51.970;5.904;2023-05-07T10:12:18;21.20;99.90
64143;DHT22;50437;51.970;5.904;2023-05-07T10:14:45;21.80;99.90
64143;DHT22;50437;51.970;5.904;2023-05-07T10:17:12;21.70;99.90
64143;DHT22;50437;51.970;5.904;2023-05-07T10:19:39;22.00;99.90
64143;DHT22;50437;51.970;5.904;2023-05-07T10:22:06;22.30;99.90
64143;DHT22;50437;51.970;5.904;2023-05-07T10:24:40;22.70;99.90
64143;DHT22;50437;51.970;5.904;2023-05-07T10:27:12;22.90;99.90
64143;DHT22;50437;51.970;5.904;2023-05-07T10:29:45;23.30;99.90
64143;DHT22;50437;51.970;5.904;2023-05-07T10:32:29;23.70;99.90
64143;DHT22;50437;51.970;5.904;2023-05-07T10:34:57;24.70;99.90
64143;DHT22;50437;51.970;5.904;2023-05-07T10:37:24;24.90;99.90
64143;DHT22;50437;51.970;5.904;2023-05-07T10:39:51;25.80;99.90
64143;DHT22;50437;51.970;5.904;2023-05-07T10:42:18;25.50;99.90
64143;DHT22;50437;51.970;5.904;2023-05-07T10:44:49;25.70;99.90
64143;DHT22;50437;51.970;5.904;2023-05-07T10:47:22;25.40;99.90
64143;DHT22;50437;51.970;5.904;2023-05-07T10:52:22;25.10;99.90
64143;DHT22;50437;51.970;5.904;2023-05-07T10:57:53;25.20;99.90
64143;DHT22;50437;51.970;5.904;2023-05-07T11:03:04;25.30;99.90
64143;DHT22;50437;51.970;5.904;2023-05-07T11:09:03;25.40;99.90
64143;DHT22;50437;51.970;5.904;2023-05-07T11:11:46;24.90;99.90
64143;DHT22;50437;51.970;5.904;2023-05-07T11:17:09;23.90;99.90
64143;DHT22;50437;51.970;5.904;2023-05-07T11:19:54;24.10;99.90
64143;DHT22;50437;51.970;5.904;2023-05-07T11:22:40;24.30;99.90
64143;DHT22;50437;51.970;5.904;2023-05-07T11:25:35;23.80;99.90
64143;DHT22;50437;51.970;5.904;2023-05-07T11:28:11;23.80;99.90
64143;DHT22;50437;51.970;5.904;2023-05-07T11:30:46;23.80;99.90
64143;DHT22;50437;51.970;5.904;2023-05-07T11:33:16;23.60;99.90
64143;DHT22;50437;51.970;5.904;2023-05-07T11:35:43;23.90;99.90
64143;DHT22;50437;51.970;5.904;2023-05-07T11:38:12;24.10;99.90
64143;DHT22;50437;51.970;5.904;2023-05-07T11:40:52;23.70;99.90
64143;DHT22;50437;51.970;5.904;2023-05-07T11:43:19;23.20;99.90
64143;DHT22;50437;51.970;5.904;2023-05-07T11:45:45;23.50;99.90
64143;DHT22;50437;51.970;5.904;2023-05-07T11:48:12;23.30;99.90
64143;DHT22;50437;51.970;5.904;2023-05-07T11:50:51;23.10;99.90
64143;DHT22;50437;51.970;5.904;2023-05-07T11:53:19;23.10;99.90
64143;DHT22;50437;51.970;5.904;2023-05-07T11:58:20;22.80;99.90
64143;DHT22;50437;51.970;5.904;2023-05-07T12:00:48;23.00;99.90
64143;DHT22;50437;51.970;5.904;2023-05-07T12:03:14;22.90;99.90
64143;DHT22;50437;51.970;5.904;2023-05-07T12:05:41;23.00;99.90
64143;DHT22;50437;51.970;5.904;2023-05-07T12:08:07;22.90;99.90
64143;DHT22;50437;51.970;5.904;2023-05-07T12:10:34;22.90;99.90
64143;DHT22;50437;51.970;5.904;2023-05-07T12:13:00;22.90;99.90
64143;DHT22;50437;51.970;5.904;2023-05-07T12:15:26;22.60;99.90
64143;DHT22;50437;51.970;5.904;2023-05-07T12:17:53;22.60;99.90
64143;DHT22;50437;51.970;5.904;2023-05-07T12:20:20;22.60;99.90
64143;DHT22;50437;51.970;5.904;2023-05-07T12:22:47;22.30;99.90
64143;DHT22;50437;51.970;5.904;2023-05-07T12:25:14;22.30;99.90
64143;DHT22;50437;51.970;5.904;2023-05-07T12:27:44;22.30;99.90
64143;DHT22;50437;51.970;5.904;2023-05-07T12:30:17;22.10;99.90
64143;DHT22;50437;51.970;5.904;2023-05-07T12:32:44;22.20;99.90
64143;DHT22;50437;51.970;5.904;2023-05-07T12:35:11;22.10;99.90
64143;DHT22;50437;51.970;5.904;2023-05-07T12:37:37;22.20;99.90
64143;DHT22;50437;51.970;5.904;2023-05-07T12:40:10;22.20;99.90
64143;DHT22;50437;51.970;5.904;2023-05-07T12:42:37;22.20;99.90
64143;DHT22;50437;51.970;5.904;2023-05-07T12:45:10;22.10;99.90
64143;DHT22;50437;51.970;5.904;2023-05-07T12:47:37;22.10;99.90
64143;DHT22;50437;51.970;5.904;2023-05-07T12:50:06;22.00;99.90
64143;DHT22;50437;51.970;5.904;2023-05-07T12:52:33;22.10;99.90
64143;DHT22;50437;51.970;5.904;2023-05-07T12:55:06;22.10;99.90
64143;DHT22;50437;51.970;5.904;2023-05-07T12:57:39;22.00;99.90
64143;DHT22;50437;51.970;5.904;2023-05-07T13:00:06;21.90;99.90
64143;DHT22;50437;51.970;5.904;2023-05-07T13:02:33;22.00;99.90
64143;DHT22;50437;51.970;5.904;2023-05-07T13:05:00;22.10;99.90
64143;DHT22;50437;51.970;5.904;2023-05-07T13:07:26;22.20;99.90
64143;DHT22;50437;51.970;5.904;2023-05-07T13:09:52;22.10;99.90
64143;DHT22;50437;51.970;5.904;2023-05-07T13:12:18;22.30;99.90
64143;DHT22;50437;51.970;5.904;2023-05-07T13:14:44;22.30;99.90
64143;DHT22;50437;51.970;5.904;2023-05-07T13:17:11;22.20;99.90
64143;DHT22;50437;51.970;5.904;2023-05-07T13:19:37;22.00;99.90
64143;DHT22;50437;51.970;5.904;2023-05-07T13:22:03;22.00;99.90
64143;DHT22;50437;51.970;5.904;2023-05-07T13:24:29;21.80;99.90
64143;DHT22;50437;51.970;5.904;2023-05-07T13:26:56;21.80;99.90
64143;DHT22;50437;51.970;5.904;2023-05-07T13:29:22;21.60;99.90
64143;DHT22;50437;51.970;5.904;2023-05-07T13:31:54;21.70;99.90
64143;DHT22;50437;51.970;5.904;2023-05-07T13:34:20;21.60;99.90
64143;DHT22;50437;51.970;5.904;2023-05-07T13:36:46;21.50;99.90
64143;DHT22;50437;51.970;5.904;2023-05-07T13:39:13;21.50;99.90
64143;DHT22;50437;51.970;5.904;2023-05-07T13:41:39;21.60;99.90
64143;DHT22;50437;51.970;5.904;2023-05-07T13:44:05;21.70;99.90
64143;DHT22;50437;51.970;5.904;2023-05-07T13:46:31;21.90;99.90
64143;DHT22;50437;51.970;5.904;2023-05-07T13:48:58;22.30;99.90
64143;DHT22;50437;51.970;5.904;2023-05-07T13:51:26;22.60;99.90
64143;DHT22;50437;51.970;5.904;2023-05-07T13:53:52;22.60;99.90
64143;DHT22;50437;51.970;5.904;2023-05-07T13:56:20;22.70;99.90
64143;DHT22;50437;51.970;5.904;2023-05-07T13:58:47;23.00;99.90
64143;DHT22;50437;51.970;5.904;2023-05-07T14:01:13;23.20;99.90
64143;DHT22;50437;51.970;5.904;2023-05-07T14:03:39;23.30;99.90
64143;DHT22;50437;51.970;5.904;2023-05-07T14:06:05;23.40;99.90
64143;DHT22;50437;51.970;5.904;2023-05-07T14:08:32;23.50;99.90
64143;DHT22;50437;51.970;5.904;2023-05-07T14:10:58;23.70;99.90
64143;DHT22;50437;51.970;5.904;2023-05-07T14:13:24;24.00;99.90
64143;DHT22;50437;51.970;5.904;2023-05-07T14:15:51;23.60;99.90
64143;DHT22;50437;51.970;5.904;2023-05-07T14:18:17;23.30;99.90
64143;DHT22;50437;51.970;5.904;2023-05-07T14:20:43;23.30;99.90
64143;DHT22;50437;51.970;5.904;2023-05-07T14:23:12;23.20;99.90
64143;DHT22;50437;51.970;5.904;2023-05-07T14:25:38;22.90;99.90
64143;DHT22;50437;51.970;5.904;2023-05-07T14:28:04;22.60;99.90
64143;DHT22;50437;51.970;5.904;2023-05-07T14:30:30;22.50;99.90
64143;DHT22;50437;51.970;5.904;2023-05-07T14:32:59;22.60;99.90
64143;DHT22;50437;51.970;5.904;2023-05-07T14:35:25;22.50;99.90
64143;DHT22;50437;51.970;5.904;2023-05-07T14:37:52;22.60;99.90
64143;DHT22;50437;51.970;5.904;2023-05-07T14:40:18;22.50;99.90
64143;DHT22;50437;51.970;5.904;2023-05-07T14:42:45;22.50;99.90
64143;DHT22;50437;51.970;5.904;2023-05-07T14:45:11;22.50;99.90
64143;DHT22;50437;51.970;5.904;2023-05-07T14:47:37;22.20;99.90
64143;DHT22;50437;51.970;5.904;2023-05-07T14:50:04;22.10;99.90
64143;DHT22;50437;51.970;5.904;2023-05-07T14:52:30;21.90;99.90
64143;DHT22;50437;51.970;5.904;2023-05-07T14:54:56;21.70;99.90
64143;DHT22;50437;51.970;5.904;2023-05-07T14:57:22;21.40;99.90
64143;DHT22;50437;51.970;5.904;2023-05-07T14:59:48;21.10;99.90
64143;DHT22;50437;51.970;5.904;2023-05-07T15:02:15;21.20;99.90
64143;DHT22;50437;51.970;5.904;2023-05-07T15:04:41;21.20;99.90
64143;DHT22;50437;51.970;5.904;2023-05-07T15:07:12;21.30;99.90
64143;DHT22;50437;51.970;5.904;2023-05-07T15:09:44;21.30;99.90
64143;DHT22;50437;51.970;5.904;2023-05-07T15:12:13;21.40;99.90
64143;DHT22;50437;51.970;5.904;2023-05-07T15:14:40;21.40;99.90
64143;DHT22;50437;51.970;5.904;2023-05-07T15:17:07;21.40;99.90
64143;DHT22;50437;51.970;5.904;2023-05-07T15:19:34;21.30;99.90
64143;DHT22;50437;51.970;5.904;2023-05-07T15:22:01;21.20;99.90
64143;DHT22;50437;51.970;5.904;2023-05-07T15:24:31;21.10;99.90
64143;DHT22;50437;51.970;5.904;2023-05-07T15:26:57;21.20;99.90
64143;DHT22;50437;51.970;5.904;2023-05-07T15:29:24;21.20;99.90
64143;DHT22;50437;51.970;5.904;2023-05-07T15:31:50;21.20;99.90
64143;DHT22;50437;51.970;5.904;2023-05-07T15:34:17;20.90;99.90
64143;DHT22;50437;51.970;5.904;2023-05-07T15:36:44;20.50;99.90
64143;DHT22;50437;51.970;5.904;2023-05-07T15:39:11;20.30;99.90
64143;DHT22;50437;51.970;5.904;2023-05-07T15:41:37;20.00;99.90
64143;DHT22;50437;51.970;5.904;2023-05-07T15:44:06;19.90;99.90
64143;DHT22;50437;51.970;5.904;2023-05-07T15:46:33;19.80;99.90
64143;DHT22;50437;51.970;5.904;2023-05-07T15:49:01;19.60;99.90
64143;DHT22;50437;51.970;5.904;2023-05-07T15:51:28;19.60;99.90